Home

PKWA Terminal Aerodrome Forecast (TAF)small logo


TAF provided by NWS Guam
2015/08/04 12:24
TAF PKWA 041120Z 0412/0512 08008KT P6SM VCSH FEW025 SCT060

      



Site Map | Contact Us | Copyright © 2007 Atmospheric Technology Services Company. All rights reserved.